sensor_id;sensor_type;location;lat;lon;timestamp;P1;durP1;ratioP1;P2;durP2;ratioP2
18445;SDS011;9352;50.888;4.466;2022-07-05T00:01:16;4.68;;;2.97;;
18445;SDS011;9352;50.888;4.466;2022-07-05T00:03:43;8.10;;;3.03;;
18445;SDS011;9352;50.888;4.466;2022-07-05T00:06:10;6.40;;;2.90;;
18445;SDS011;9352;50.888;4.466;2022-07-05T00:08:37;5.72;;;2.90;;
18445;SDS011;9352;50.888;4.466;2022-07-05T00:11:05;4.60;;;2.80;;
18445;SDS011;9352;50.888;4.466;2022-07-05T00:13:32;4.07;;;2.88;;
18445;SDS011;9352;50.888;4.466;2022-07-05T00:15:59;4.82;;;3.17;;
18445;SDS011;9352;50.888;4.466;2022-07-05T00:18:27;7.90;;;2.90;;
18445;SDS011;9352;50.888;4.466;2022-07-05T00:20:54;9.77;;;2.53;;
18445;SDS011;9352;50.888;4.466;2022-07-05T00:23:21;5.60;;;2.97;;
18445;SDS011;9352;50.888;4.466;2022-07-05T00:25:48;8.43;;;2.83;;
18445;SDS011;9352;50.888;4.466;2022-07-05T00:28:15;5.00;;;2.90;;
18445;SDS011;9352;50.888;4.466;2022-07-05T00:30:42;4.38;;;3.00;;
18445;SDS011;9352;50.888;4.466;2022-07-05T00:33:09;3.30;;;2.97;;
18445;SDS011;9352;50.888;4.466;2022-07-05T00:35:37;7.82;;;3.30;;
18445;SDS011;9352;50.888;4.466;2022-07-05T00:38:04;4.88;;;2.90;;
18445;SDS011;9352;50.888;4.466;2022-07-05T00:40:30;5.97;;;3.22;;
18445;SDS011;9352;50.888;4.466;2022-07-05T00:42:57;5.78;;;3.10;;
18445;SDS011;9352;50.888;4.466;2022-07-05T00:45:24;8.75;;;3.08;;
18445;SDS011;9352;50.888;4.466;2022-07-05T00:47:51;5.38;;;3.40;;
18445;SDS011;9352;50.888;4.466;2022-07-05T00:50:18;6.70;;;3.10;;
18445;SDS011;9352;50.888;4.466;2022-07-05T00:52:47;11.23;;;3.25;;
18445;SDS011;9352;50.888;4.466;2022-07-05T00:55:15;11.35;;;3.30;;
18445;SDS011;9352;50.888;4.466;2022-07-05T00:57:42;6.22;;;3.28;;
18445;SDS011;9352;50.888;4.466;2022-07-05T01:00:09;3.85;;;2.90;;
18445;SDS011;9352;50.888;4.466;2022-07-05T01:02:36;3.88;;;3.08;;
18445;SDS011;9352;50.888;4.466;2022-07-05T01:05:04;7.30;;;3.17;;
18445;SDS011;9352;50.888;4.466;2022-07-05T01:07:31;5.47;;;3.47;;
18445;SDS011;9352;50.888;4.466;2022-07-05T01:09:59;7.63;;;3.30;;
18445;SDS011;9352;50.888;4.466;2022-07-05T01:12:26;8.63;;;3.42;;
18445;SDS011;9352;50.888;4.466;2022-07-05T01:14:53;8.77;;;3.65;;
18445;SDS011;9352;50.888;4.466;2022-07-05T01:17:21;5.80;;;3.20;;
18445;SDS011;9352;50.888;4.466;2022-07-05T01:19:48;5.45;;;3.28;;
18445;SDS011;9352;50.888;4.466;2022-07-05T01:22:17;5.57;;;3.42;;
18445;SDS011;9352;50.888;4.466;2022-07-05T01:24:47;4.80;;;3.53;;
18445;SDS011;9352;50.888;4.466;2022-07-05T01:27:15;5.47;;;3.42;;
18445;SDS011;9352;50.888;4.466;2022-07-05T01:29:43;8.68;;;3.67;;
18445;SDS011;9352;50.888;4.466;2022-07-05T01:32:10;5.18;;;3.45;;
18445;SDS011;9352;50.888;4.466;2022-07-05T01:34:37;9.43;;;3.50;;
18445;SDS011;9352;50.888;4.466;2022-07-05T01:37:05;6.88;;;3.63;;
18445;SDS011;9352;50.888;4.466;2022-07-05T01:39:32;4.43;;;3.58;;
18445;SDS011;9352;50.888;4.466;2022-07-05T01:42:01;5.95;;;3.80;;
18445;SDS011;9352;50.888;4.466;2022-07-05T01:44:32;7.25;;;3.80;;
18445;SDS011;9352;50.888;4.466;2022-07-05T01:47:04;6.28;;;3.80;;
18445;SDS011;9352;50.888;4.466;2022-07-05T01:49:34;5.72;;;3.83;;
18445;SDS011;9352;50.888;4.466;2022-07-05T01:52:07;7.00;;;3.78;;
18445;SDS011;9352;50.888;4.466;2022-07-05T01:54:35;4.88;;;3.70;;
18445;SDS011;9352;50.888;4.466;2022-07-05T01:57:04;5.38;;;3.45;;
18445;SDS011;9352;50.888;4.466;2022-07-05T01:59:32;4.05;;;3.50;;
18445;SDS011;9352;50.888;4.466;2022-07-05T02:02:00;8.55;;;3.50;;
18445;SDS011;9352;50.888;4.466;2022-07-05T02:04:28;5.55;;;3.17;;
18445;SDS011;9352;50.888;4.466;2022-07-05T02:06:56;3.92;;;3.17;;
18445;SDS011;9352;50.888;4.466;2022-07-05T02:09:23;5.05;;;3.47;;
18445;SDS011;9352;50.888;4.466;2022-07-05T02:11:50;10.35;;;3.70;;
18445;SDS011;9352;50.888;4.466;2022-07-05T02:14:18;6.80;;;3.35;;
18445;SDS011;9352;50.888;4.466;2022-07-05T02:16:46;3.42;;;3.13;;
18445;SDS011;9352;50.888;4.466;2022-07-05T02:19:13;6.97;;;3.47;;
18445;SDS011;9352;50.888;4.466;2022-07-05T02:21:40;7.72;;;3.63;;
18445;SDS011;9352;50.888;4.466;2022-07-05T02:24:07;4.47;;;3.38;;
18445;SDS011;9352;50.888;4.466;2022-07-05T02:26:34;10.52;;;3.70;;
18445;SDS011;9352;50.888;4.466;2022-07-05T02:29:01;5.97;;;3.60;;
18445;SDS011;9352;50.888;4.466;2022-07-05T02:31:30;3.50;;;3.15;;
18445;SDS011;9352;50.888;4.466;2022-07-05T02:33:58;3.70;;;3.40;;
18445;SDS011;9352;50.888;4.466;2022-07-05T02:36:25;6.68;;;3.50;;
18445;SDS011;9352;50.888;4.466;2022-07-05T02:38:52;9.80;;;3.60;;
18445;SDS011;9352;50.888;4.466;2022-07-05T02:41:19;5.65;;;3.67;;
18445;SDS011;9352;50.888;4.466;2022-07-05T02:43:46;6.43;;;3.70;;
18445;SDS011;9352;50.888;4.466;2022-07-05T02:46:13;4.10;;;3.63;;
18445;SDS011;9352;50.888;4.466;2022-07-05T02:48:41;9.20;;;3.35;;
18445;SDS011;9352;50.888;4.466;2022-07-05T02:51:08;10.63;;;3.88;;
18445;SDS011;9352;50.888;4.466;2022-07-05T02:53:35;4.30;;;3.50;;
18445;SDS011;9352;50.888;4.466;2022-07-05T02:56:02;3.60;;;3.30;;
18445;SDS011;9352;50.888;4.466;2022-07-05T02:58:29;4.30;;;3.40;;
18445;SDS011;9352;50.888;4.466;2022-07-05T03:00:56;7.22;;;3.50;;
18445;SDS011;9352;50.888;4.466;2022-07-05T03:03:23;9.00;;;3.80;;
18445;SDS011;9352;50.888;4.466;2022-07-05T03:05:52;5.72;;;3.60;;
18445;SDS011;9352;50.888;4.466;2022-07-05T03:08:19;7.03;;;3.42;;
18445;SDS011;9352;50.888;4.466;2022-07-05T03:10:46;3.60;;;3.30;;
18445;SDS011;9352;50.888;4.466;2022-07-05T03:13:13;4.43;;;3.60;;
18445;SDS011;9352;50.888;4.466;2022-07-05T03:15:39;3.72;;;3.40;;
18445;SDS011;9352;50.888;4.466;2022-07-05T03:18:07;11.38;;;3.60;;
18445;SDS011;9352;50.888;4.466;2022-07-05T03:20:34;5.50;;;3.97;;
18445;SDS011;9352;50.888;4.466;2022-07-05T03:23:03;5.00;;;3.88;;
18445;SDS011;9352;50.888;4.466;2022-07-05T03:25:30;11.15;;;3.95;;
18445;SDS011;9352;50.888;4.466;2022-07-05T03:27:56;3.90;;;3.40;;
18445;SDS011;9352;50.888;4.466;2022-07-05T03:30:23;9.43;;;3.60;;
18445;SDS011;9352;50.888;4.466;2022-07-05T03:32:50;5.47;;;3.40;;
18445;SDS011;9352;50.888;4.466;2022-07-05T03:35:17;5.70;;;3.58;;
18445;SDS011;9352;50.888;4.466;2022-07-05T03:37:44;5.82;;;3.88;;
18445;SDS011;9352;50.888;4.466;2022-07-05T03:40:12;4.57;;;3.78;;
18445;SDS011;9352;50.888;4.466;2022-07-05T03:42:39;3.70;;;3.35;;
18445;SDS011;9352;50.888;4.466;2022-07-05T03:45:07;5.10;;;3.42;;
18445;SDS011;9352;50.888;4.466;2022-07-05T03:47:34;7.22;;;3.90;;
18445;SDS011;9352;50.888;4.466;2022-07-05T03:50:01;3.85;;;3.50;;
18445;SDS011;9352;50.888;4.466;2022-07-05T03:52:28;6.00;;;3.65;;
18445;SDS011;9352;50.888;4.466;2022-07-05T03:54:55;4.63;;;3.50;;
18445;SDS011;9352;50.888;4.466;2022-07-05T03:57:23;6.63;;;3.70;;
18445;SDS011;9352;50.888;4.466;2022-07-05T03:59:50;7.70;;;3.90;;
18445;SDS011;9352;50.888;4.466;2022-07-05T04:02:17;4.90;;;3.63;;
18445;SDS011;9352;50.888;4.466;2022-07-05T04:04:44;7.07;;;4.00;;
18445;SDS011;9352;50.888;4.466;2022-07-05T04:07:11;5.80;;;3.50;;
18445;SDS011;9352;50.888;4.466;2022-07-05T04:09:38;12.20;;;3.72;;
18445;SDS011;9352;50.888;4.466;2022-07-05T04:12:05;9.80;;;4.05;;
18445;SDS011;9352;50.888;4.466;2022-07-05T04:14:33;6.60;;;4.20;;
18445;SDS011;9352;50.888;4.466;2022-07-05T04:17:00;7.75;;;4.43;;
18445;SDS011;9352;50.888;4.466;2022-07-05T04:19:27;7.10;;;4.05;;
18445;SDS011;9352;50.888;4.466;2022-07-05T04:21:55;8.55;;;4.60;;
18445;SDS011;9352;50.888;4.466;2022-07-05T04:24:22;13.15;;;5.22;;
18445;SDS011;9352;50.888;4.466;2022-07-05T04:26:49;6.70;;;4.10;;
18445;SDS011;9352;50.888;4.466;2022-07-05T04:29:16;7.30;;;4.28;;
18445;SDS011;9352;50.888;4.466;2022-07-05T04:31:44;11.70;;;4.85;;
18445;SDS011;9352;50.888;4.466;2022-07-05T04:34:11;6.63;;;3.90;;
18445;SDS011;9352;50.888;4.466;2022-07-05T04:36:37;9.00;;;4.15;;
18445;SDS011;9352;50.888;4.466;2022-07-05T04:39:06;8.43;;;4.93;;
18445;SDS011;9352;50.888;4.466;2022-07-05T04:41:33;7.15;;;4.47;;
18445;SDS011;9352;50.888;4.466;2022-07-05T04:44:00;7.03;;;4.25;;
18445;SDS011;9352;50.888;4.466;2022-07-05T04:46:26;8.93;;;4.20;;
18445;SDS011;9352;50.888;4.466;2022-07-05T04:48:55;9.02;;;4.30;;
18445;SDS011;9352;50.888;4.466;2022-07-05T04:51:22;7.50;;;4.60;;
18445;SDS011;9352;50.888;4.466;2022-07-05T04:53:49;6.88;;;4.68;;
18445;SDS011;9352;50.888;4.466;2022-07-05T04:56:15;5.22;;;3.92;;
18445;SDS011;9352;50.888;4.466;2022-07-05T04:58:42;8.07;;;4.05;;
18445;SDS011;9352;50.888;4.466;2022-07-05T05:01:09;11.65;;;4.57;;
18445;SDS011;9352;50.888;4.466;2022-07-05T05:03:36;11.05;;;4.50;;
18445;SDS011;9352;50.888;4.466;2022-07-05T05:06:04;6.72;;;4.55;;
18445;SDS011;9352;50.888;4.466;2022-07-05T05:08:31;11.48;;;5.15;;
18445;SDS011;9352;50.888;4.466;2022-07-05T05:10:58;12.70;;;5.13;;
18445;SDS011;9352;50.888;4.466;2022-07-05T05:13:25;16.20;;;4.93;;
18445;SDS011;9352;50.888;4.466;2022-07-05T05:15:52;8.70;;;4.90;;
18445;SDS011;9352;50.888;4.466;2022-07-05T05:18:18;12.52;;;4.97;;
18445;SDS011;9352;50.888;4.466;2022-07-05T05:20:49;16.10;;;5.20;;
18445;SDS011;9352;50.888;4.466;2022-07-05T05:23:17;25.05;;;6.22;;
18445;SDS011;9352;50.888;4.466;2022-07-05T05:25:44;23.23;;;5.55;;
18445;SDS011;9352;50.888;4.466;2022-07-05T05:28:11;26.65;;;5.28;;
18445;SDS011;9352;50.888;4.466;2022-07-05T05:30:38;19.73;;;5.05;;
18445;SDS011;9352;50.888;4.466;2022-07-05T05:33:05;32.10;;;5.45;;
18445;SDS011;9352;50.888;4.466;2022-07-05T05:35:31;17.83;;;4.75;;
18445;SDS011;9352;50.888;4.466;2022-07-05T05:37:58;7.97;;;4.28;;
18445;SDS011;9352;50.888;4.466;2022-07-05T05:40:26;8.50;;;4.30;;
18445;SDS011;9352;50.888;4.466;2022-07-05T05:42:54;12.85;;;5.03;;
18445;SDS011;9352;50.888;4.466;2022-07-05T05:45:21;12.52;;;4.35;;
18445;SDS011;9352;50.888;4.466;2022-07-05T05:47:50;12.63;;;4.55;;
18445;SDS011;9352;50.888;4.466;2022-07-05T05:50:18;13.57;;;4.50;;
18445;SDS011;9352;50.888;4.466;2022-07-05T05:52:45;9.27;;;4.75;;
18445;SDS011;9352;50.888;4.466;2022-07-05T05:55:12;10.02;;;4.05;;
18445;SDS011;9352;50.888;4.466;2022-07-05T05:57:41;11.60;;;4.60;;
18445;SDS011;9352;50.888;4.466;2022-07-05T06:00:08;14.57;;;4.32;;
18445;SDS011;9352;50.888;4.466;2022-07-05T06:02:36;10.68;;;4.25;;
18445;SDS011;9352;50.888;4.466;2022-07-05T06:05:04;15.00;;;5.05;;
18445;SDS011;9352;50.888;4.466;2022-07-05T06:07:31;7.18;;;4.78;;
18445;SDS011;9352;50.888;4.466;2022-07-05T06:10:08;8.10;;;4.25;;
18445;SDS011;9352;50.888;4.466;2022-07-05T06:12:35;9.90;;;4.40;;
18445;SDS011;9352;50.888;4.466;2022-07-05T06:15:03;10.77;;;4.90;;
18445;SDS011;9352;50.888;4.466;2022-07-05T06:17:35;10.13;;;4.63;;
18445;SDS011;9352;50.888;4.466;2022-07-05T06:20:03;11.65;;;4.57;;
18445;SDS011;9352;50.888;4.466;2022-07-05T06:22:31;8.57;;;4.68;;
18445;SDS011;9352;50.888;4.466;2022-07-05T06:24:58;12.98;;;4.88;;
18445;SDS011;9352;50.888;4.466;2022-07-05T06:27:25;11.00;;;4.38;;
18445;SDS011;9352;50.888;4.466;2022-07-05T06:29:51;9.13;;;3.70;;
18445;SDS011;9352;50.888;4.466;2022-07-05T06:32:20;7.78;;;3.83;;
18445;SDS011;9352;50.888;4.466;2022-07-05T06:34:47;14.27;;;4.13;;
18445;SDS011;9352;50.888;4.466;2022-07-05T06:37:14;12.88;;;4.03;;
18445;SDS011;9352;50.888;4.466;2022-07-05T06:39:41;13.00;;;4.40;;
18445;SDS011;9352;50.888;4.466;2022-07-05T06:42:08;13.98;;;4.35;;
18445;SDS011;9352;50.888;4.466;2022-07-05T06:44:35;13.15;;;4.20;;
18445;SDS011;9352;50.888;4.466;2022-07-05T06:47:02;16.35;;;4.25;;
18445;SDS011;9352;50.888;4.466;2022-07-05T06:49:31;16.50;;;4.82;;
18445;SDS011;9352;50.888;4.466;2022-07-05T06:51:57;22.92;;;4.80;;
18445;SDS011;9352;50.888;4.466;2022-07-05T06:54:24;18.63;;;4.30;;
18445;SDS011;9352;50.888;4.466;2022-07-05T06:56:51;14.32;;;4.35;;
18445;SDS011;9352;50.888;4.466;2022-07-05T06:59:20;12.23;;;4.65;;
18445;SDS011;9352;50.888;4.466;2022-07-05T07:01:47;18.67;;;4.32;;
18445;SDS011;9352;50.888;4.466;2022-07-05T07:04:14;19.13;;;4.82;;
18445;SDS011;9352;50.888;4.466;2022-07-05T07:06:42;17.25;;;4.35;;
18445;SDS011;9352;50.888;4.466;2022-07-05T07:09:09;12.60;;;4.18;;
18445;SDS011;9352;50.888;4.466;2022-07-05T07:11:43;13.30;;;4.13;;
18445;SDS011;9352;50.888;4.466;2022-07-05T07:14:10;16.17;;;4.55;;
18445;SDS011;9352;50.888;4.466;2022-07-05T07:16:37;12.00;;;3.67;;
18445;SDS011;9352;50.888;4.466;2022-07-05T07:19:04;9.90;;;3.65;;
18445;SDS011;9352;50.888;4.466;2022-07-05T07:21:31;12.52;;;4.00;;
18445;SDS011;9352;50.888;4.466;2022-07-05T07:23:59;17.02;;;4.28;;
18445;SDS011;9352;50.888;4.466;2022-07-05T07:26:26;15.90;;;3.95;;
18445;SDS011;9352;50.888;4.466;2022-07-05T07:28:53;5.70;;;3.90;;
18445;SDS011;9352;50.888;4.466;2022-07-05T07:31:20;10.23;;;4.15;;
18445;SDS011;9352;50.888;4.466;2022-07-05T07:33:47;25.40;;;5.05;;
18445;SDS011;9352;50.888;4.466;2022-07-05T07:36:14;10.98;;;4.15;;
18445;SDS011;9352;50.888;4.466;2022-07-05T07:38:40;9.00;;;4.32;;
18445;SDS011;9352;50.888;4.466;2022-07-05T07:41:09;10.82;;;4.05;;
18445;SDS011;9352;50.888;4.466;2022-07-05T07:43:36;10.77;;;3.63;;
18445;SDS011;9352;50.888;4.466;2022-07-05T07:46:02;9.57;;;3.40;;
18445;SDS011;9352;50.888;4.466;2022-07-05T07:48:29;15.18;;;4.65;;
18445;SDS011;9352;50.888;4.466;2022-07-05T07:50:57;13.32;;;4.72;;
18445;SDS011;9352;50.888;4.466;2022-07-05T07:53:24;13.55;;;3.75;;
18445;SDS011;9352;50.888;4.466;2022-07-05T07:55:51;12.00;;;3.92;;
18445;SDS011;9352;50.888;4.466;2022-07-05T07:58:19;15.32;;;4.25;;
18445;SDS011;9352;50.888;4.466;2022-07-05T08:00:46;12.80;;;3.90;;
18445;SDS011;9352;50.888;4.466;2022-07-05T08:03:12;7.18;;;3.50;;
18445;SDS011;9352;50.888;4.466;2022-07-05T08:05:39;10.63;;;5.43;;
18445;SDS011;9352;50.888;4.466;2022-07-05T08:08:06;13.40;;;4.15;;
18445;SDS011;9352;50.888;4.466;2022-07-05T08:10:33;13.93;;;4.57;;
18445;SDS011;9352;50.888;4.466;2022-07-05T08:13:00;12.48;;;3.80;;
18445;SDS011;9352;50.888;4.466;2022-07-05T08:15:29;12.27;;;3.95;;
18445;SDS011;9352;50.888;4.466;2022-07-05T08:17:56;10.32;;;3.75;;
18445;SDS011;9352;50.888;4.466;2022-07-05T08:20:40;8.68;;;3.78;;
18445;SDS011;9352;50.888;4.466;2022-07-05T08:23:24;12.65;;;3.95;;
18445;SDS011;9352;50.888;4.466;2022-07-05T08:25:51;17.60;;;3.63;;
18445;SDS011;9352;50.888;4.466;2022-07-05T08:28:18;18.08;;;3.33;;
18445;SDS011;9352;50.888;4.466;2022-07-05T08:30:46;9.98;;;3.55;;
18445;SDS011;9352;50.888;4.466;2022-07-05T08:33:13;6.30;;;3.28;;
18445;SDS011;9352;50.888;4.466;2022-07-05T08:35:40;9.27;;;3.22;;
18445;SDS011;9352;50.888;4.466;2022-07-05T08:38:07;12.15;;;4.18;;
18445;SDS011;9352;50.888;4.466;2022-07-05T08:40:33;10.95;;;4.00;;
18445;SDS011;9352;50.888;4.466;2022-07-05T08:43:05;6.40;;;3.67;;
18445;SDS011;9352;50.888;4.466;2022-07-05T08:45:33;12.18;;;3.85;;
18445;SDS011;9352;50.888;4.466;2022-07-05T08:48:02;7.63;;;3.28;;
18445;SDS011;9352;50.888;4.466;2022-07-05T08:50:30;12.52;;;3.60;;
18445;SDS011;9352;50.888;4.466;2022-07-05T08:52:59;8.05;;;3.10;;
18445;SDS011;9352;50.888;4.466;2022-07-05T08:55:27;30.10;;;4.25;;
18445;SDS011;9352;50.888;4.466;2022-07-05T08:57:54;11.00;;;3.60;;
18445;SDS011;9352;50.888;4.466;2022-07-05T09:00:21;26.60;;;3.83;;
18445;SDS011;9352;50.888;4.466;2022-07-05T09:02:48;7.82;;;3.33;;
18445;SDS011;9352;50.888;4.466;2022-07-05T09:05:18;12.88;;;2.92;;
18445;SDS011;9352;50.888;4.466;2022-07-05T09:07:48;9.63;;;3.25;;
18445;SDS011;9352;50.888;4.466;2022-07-05T09:10:20;13.25;;;3.70;;
18445;SDS011;9352;50.888;4.466;2022-07-05T09:12:50;16.20;;;5.90;;
18445;SDS011;9352;50.888;4.466;2022-07-05T09:15:16;14.68;;;6.05;;
18445;SDS011;9352;50.888;4.466;2022-07-05T09:17:43;16.60;;;6.22;;
18445;SDS011;9352;50.888;4.466;2022-07-05T09:20:11;11.40;;;5.05;;
18445;SDS011;9352;50.888;4.466;2022-07-05T09:22:44;14.80;;;5.07;;
18445;SDS011;9352;50.888;4.466;2022-07-05T09:25:13;14.20;;;5.20;;
18445;SDS011;9352;50.888;4.466;2022-07-05T09:27:52;11.13;;;4.68;;
18445;SDS011;9352;50.888;4.466;2022-07-05T09:30:24;10.27;;;4.03;;
18445;SDS011;9352;50.888;4.466;2022-07-05T09:33:01;10.18;;;4.35;;
18445;SDS011;9352;50.888;4.466;2022-07-05T09:35:29;10.32;;;3.78;;
18445;SDS011;9352;50.888;4.466;2022-07-05T09:37:58;16.05;;;4.03;;
18445;SDS011;9352;50.888;4.466;2022-07-05T09:40:28;9.77;;;3.88;;
18445;SDS011;9352;50.888;4.466;2022-07-05T09:43:09;11.70;;;3.35;;
18445;SDS011;9352;50.888;4.466;2022-07-05T09:45:37;11.85;;;3.53;;
18445;SDS011;9352;50.888;4.466;2022-07-05T09:48:04;7.65;;;3.42;;
18445;SDS011;9352;50.888;4.466;2022-07-05T09:50:33;19.85;;;5.00;;
18445;SDS011;9352;50.888;4.466;2022-07-05T09:53:02;10.48;;;4.15;;
18445;SDS011;9352;50.888;4.466;2022-07-05T09:55:29;9.98;;;3.88;;
18445;SDS011;9352;50.888;4.466;2022-07-05T09:57:56;19.00;;;4.00;;
18445;SDS011;9352;50.888;4.466;2022-07-05T10:00:23;15.05;;;4.45;;
18445;SDS011;9352;50.888;4.466;2022-07-05T10:02:51;16.90;;;3.88;;
18445;SDS011;9352;50.888;4.466;2022-07-05T10:05:19;7.47;;;3.42;;
18445;SDS011;9352;50.888;4.466;2022-07-05T10:07:47;15.32;;;3.53;;
18445;SDS011;9352;50.888;4.466;2022-07-05T10:10:17;12.90;;;3.50;;
18445;SDS011;9352;50.888;4.466;2022-07-05T10:12:45;8.93;;;3.80;;
18445;SDS011;9352;50.888;4.466;2022-07-05T10:15:13;8.68;;;3.08;;
18445;SDS011;9352;50.888;4.466;2022-07-05T10:17:42;11.88;;;3.42;;
18445;SDS011;9352;50.888;4.466;2022-07-05T10:20:12;9.38;;;3.75;;
18445;SDS011;9352;50.888;4.466;2022-07-05T10:22:44;11.25;;;3.55;;
18445;SDS011;9352;50.888;4.466;2022-07-05T10:25:11;7.85;;;2.90;;
18445;SDS011;9352;50.888;4.466;2022-07-05T10:27:41;5.88;;;2.60;;
18445;SDS011;9352;50.888;4.466;2022-07-05T10:30:09;3.47;;;2.53;;
18445;SDS011;9352;50.888;4.466;2022-07-05T10:32:38;4.82;;;2.90;;
18445;SDS011;9352;50.888;4.466;2022-07-05T10:35:05;6.53;;;2.83;;
18445;SDS011;9352;50.888;4.466;2022-07-05T10:37:34;4.03;;;2.97;;
18445;SDS011;9352;50.888;4.466;2022-07-05T10:40:02;5.95;;;2.97;;
18445;SDS011;9352;50.888;4.466;2022-07-05T10:42:33;11.43;;;3.08;;
18445;SDS011;9352;50.888;4.466;2022-07-05T10:50:51;5.13;;;2.63;;
18445;SDS011;9352;50.888;4.466;2022-07-05T10:53:19;7.55;;;2.83;;
18445;SDS011;9352;50.888;4.466;2022-07-05T10:55:48;8.77;;;2.83;;
18445;SDS011;9352;50.888;4.466;2022-07-05T10:58:26;6.10;;;2.63;;
18445;SDS011;9352;50.888;4.466;2022-07-05T11:07:03;7.57;;;3.10;;
18445;SDS011;9352;50.888;4.466;2022-07-05T11:09:30;4.07;;;2.10;;
18445;SDS011;9352;50.888;4.466;2022-07-05T11:14:45;5.55;;;2.50;;
18445;SDS011;9352;50.888;4.466;2022-07-05T11:17:19;7.50;;;2.60;;
18445;SDS011;9352;50.888;4.466;2022-07-05T11:19:59;9.10;;;2.10;;
18445;SDS011;9352;50.888;4.466;2022-07-05T11:23:03;4.95;;;2.17;;
18445;SDS011;9352;50.888;4.466;2022-07-05T11:25:36;6.38;;;2.28;;
18445;SDS011;9352;50.888;4.466;2022-07-05T11:28:06;6.15;;;2.10;;
18445;SDS011;9352;50.888;4.466;2022-07-05T11:30:45;7.88;;;2.15;;
18445;SDS011;9352;50.888;4.466;2022-07-05T11:33:26;4.47;;;2.10;;
18445;SDS011;9352;50.888;4.466;2022-07-05T11:36:02;5.30;;;2.47;;
18445;SDS011;9352;50.888;4.466;2022-07-05T11:38:30;6.95;;;2.35;;
18445;SDS011;9352;50.888;4.466;2022-07-05T11:41:10;7.78;;;2.17;;
18445;SDS011;9352;50.888;4.466;2022-07-05T11:43:37;7.80;;;2.10;;
18445;SDS011;9352;50.888;4.466;2022-07-05T11:46:06;8.52;;;2.42;;
18445;SDS011;9352;50.888;4.466;2022-07-05T11:48:33;5.75;;;1.63;;
18445;SDS011;9352;50.888;4.466;2022-07-05T11:51:12;6.57;;;1.77;;
18445;SDS011;9352;50.888;4.466;2022-07-05T11:53:40;7.30;;;1.77;;
18445;SDS011;9352;50.888;4.466;2022-07-05T11:56:09;5.10;;;2.10;;
18445;SDS011;9352;50.888;4.466;2022-07-05T11:58:36;10.45;;;2.20;;
18445;SDS011;9352;50.888;4.466;2022-07-05T12:01:03;8.30;;;2.15;;
18445;SDS011;9352;50.888;4.466;2022-07-05T12:03:31;2.97;;;1.60;;
18445;SDS011;9352;50.888;4.466;2022-07-05T12:05:58;10.02;;;2.15;;
18445;SDS011;9352;50.888;4.466;2022-07-05T12:08:26;4.15;;;2.25;;
18445;SDS011;9352;50.888;4.466;2022-07-05T12:10:53;7.18;;;2.30;;
18445;SDS011;9352;50.888;4.466;2022-07-05T12:13:45;3.30;;;2.10;;
18445;SDS011;9352;50.888;4.466;2022-07-05T12:16:12;4.53;;;2.00;;
18445;SDS011;9352;50.888;4.466;2022-07-05T12:18:46;4.45;;;2.30;;
18445;SDS011;9352;50.888;4.466;2022-07-05T12:21:13;2.80;;;2.10;;
18445;SDS011;9352;50.888;4.466;2022-07-05T12:23:42;4.95;;;2.05;;
18445;SDS011;9352;50.888;4.466;2022-07-05T12:26:10;5.82;;;2.50;;
18445;SDS011;9352;50.888;4.466;2022-07-05T12:28:38;3.47;;;2.00;;
18445;SDS011;9352;50.888;4.466;2022-07-05T12:31:15;7.22;;;2.60;;
18445;SDS011;9352;50.888;4.466;2022-07-05T12:33:43;6.95;;;2.63;;
18445;SDS011;9352;50.888;4.466;2022-07-05T12:36:10;9.95;;;2.83;;
18445;SDS011;9352;50.888;4.466;2022-07-05T12:38:38;9.50;;;2.50;;
18445;SDS011;9352;50.888;4.466;2022-07-05T12:41:06;4.95;;;2.42;;
18445;SDS011;9352;50.888;4.466;2022-07-05T12:43:47;5.90;;;2.75;;
18445;SDS011;9352;50.888;4.466;2022-07-05T12:46:15;5.40;;;2.70;;
18445;SDS011;9352;50.888;4.466;2022-07-05T12:48:41;5.40;;;2.58;;
18445;SDS011;9352;50.888;4.466;2022-07-05T12:51:09;8.13;;;2.47;;
18445;SDS011;9352;50.888;4.466;2022-07-05T12:53:43;7.07;;;2.38;;
18445;SDS011;9352;50.888;4.466;2022-07-05T12:56:30;6.38;;;2.72;;
18445;SDS011;9352;50.888;4.466;2022-07-05T12:59:15;3.42;;;2.45;;
18445;SDS011;9352;50.888;4.466;2022-07-05T13:01:42;3.72;;;2.70;;
18445;SDS011;9352;50.888;4.466;2022-07-05T13:04:10;5.18;;;2.35;;
18445;SDS011;9352;50.888;4.466;2022-07-05T13:06:39;5.05;;;2.70;;
18445;SDS011;9352;50.888;4.466;2022-07-05T13:09:10;4.22;;;2.33;;
18445;SDS011;9352;50.888;4.466;2022-07-05T13:11:39;3.35;;;2.25;;
18445;SDS011;9352;50.888;4.466;2022-07-05T13:14:06;3.60;;;2.03;;
18445;SDS011;9352;50.888;4.466;2022-07-05T13:16:33;5.60;;;2.28;;
18445;SDS011;9352;50.888;4.466;2022-07-05T13:19:09;5.18;;;2.42;;
18445;SDS011;9352;50.888;4.466;2022-07-05T13:21:37;6.05;;;2.10;;
18445;SDS011;9352;50.888;4.466;2022-07-05T13:24:06;8.55;;;2.42;;
18445;SDS011;9352;50.888;4.466;2022-07-05T13:26:33;12.43;;;2.10;;
18445;SDS011;9352;50.888;4.466;2022-07-05T13:29:01;10.35;;;2.20;;
18445;SDS011;9352;50.888;4.466;2022-07-05T13:31:28;7.78;;;2.33;;
18445;SDS011;9352;50.888;4.466;2022-07-05T13:33:56;4.43;;;1.98;;
18445;SDS011;9352;50.888;4.466;2022-07-05T13:36:24;1.95;;;1.70;;
18445;SDS011;9352;50.888;4.466;2022-07-05T13:38:51;6.47;;;1.95;;
18445;SDS011;9352;50.888;4.466;2022-07-05T13:41:18;8.25;;;1.90;;
18445;SDS011;9352;50.888;4.466;2022-07-05T13:43:45;5.75;;;1.50;;
18445;SDS011;9352;50.888;4.466;2022-07-05T13:46:13;11.27;;;2.30;;
18445;SDS011;9352;50.888;4.466;2022-07-05T13:48:40;4.80;;;1.80;;
18445;SDS011;9352;50.888;4.466;2022-07-05T13:51:07;5.32;;;1.60;;
18445;SDS011;9352;50.888;4.466;2022-07-05T13:53:34;3.47;;;1.52;;
18445;SDS011;9352;50.888;4.466;2022-07-05T13:56:01;4.32;;;1.70;;
18445;SDS011;9352;50.888;4.466;2022-07-05T13:58:29;3.15;;;1.83;;
18445;SDS011;9352;50.888;4.466;2022-07-05T14:00:56;4.43;;;1.60;;
18445;SDS011;9352;50.888;4.466;2022-07-05T14:03:24;2.00;;;1.75;;
18445;SDS011;9352;50.888;4.466;2022-07-05T14:05:51;3.15;;;1.48;;
18445;SDS011;9352;50.888;4.466;2022-07-05T14:08:18;7.03;;;1.75;;
18445;SDS011;9352;50.888;4.466;2022-07-05T14:10:47;7.93;;;1.83;;
18445;SDS011;9352;50.888;4.466;2022-07-05T14:13:16;4.43;;;1.63;;
18445;SDS011;9352;50.888;4.466;2022-07-05T14:15:43;5.82;;;1.88;;
18445;SDS011;9352;50.888;4.466;2022-07-05T14:18:10;3.08;;;1.50;;
18445;SDS011;9352;50.888;4.466;2022-07-05T14:20:39;6.95;;;1.50;;
18445;SDS011;9352;50.888;4.466;2022-07-05T14:23:06;4.55;;;1.75;;
18445;SDS011;9352;50.888;4.466;2022-07-05T14:25:33;6.38;;;1.30;;
18445;SDS011;9352;50.888;4.466;2022-07-05T14:28:00;5.75;;;1.60;;
18445;SDS011;9352;50.888;4.466;2022-07-05T14:30:32;2.95;;;1.42;;
18445;SDS011;9352;50.888;4.466;2022-07-05T14:32:59;5.45;;;1.75;;
18445;SDS011;9352;50.888;4.466;2022-07-05T14:35:26;5.75;;;1.30;;
18445;SDS011;9352;50.888;4.466;2022-07-05T14:37:54;3.40;;;1.65;;
18445;SDS011;9352;50.888;4.466;2022-07-05T14:40:21;4.75;;;1.50;;
18445;SDS011;9352;50.888;4.466;2022-07-05T14:42:49;6.07;;;1.65;;
18445;SDS011;9352;50.888;4.466;2022-07-05T14:45:16;7.35;;;1.80;;
18445;SDS011;9352;50.888;4.466;2022-07-05T14:47:43;5.72;;;1.70;;
18445;SDS011;9352;50.888;4.466;2022-07-05T14:50:10;4.78;;;1.50;;
18445;SDS011;9352;50.888;4.466;2022-07-05T14:52:37;4.55;;;1.58;;
18445;SDS011;9352;50.888;4.466;2022-07-05T14:55:06;6.80;;;1.52;;
18445;SDS011;9352;50.888;4.466;2022-07-05T14:57:34;3.38;;;1.60;;
18445;SDS011;9352;50.888;4.466;2022-07-05T15:00:01;3.97;;;1.65;;
18445;SDS011;9352;50.888;4.466;2022-07-05T15:02:29;4.13;;;1.67;;
18445;SDS011;9352;50.888;4.466;2022-07-05T15:04:56;5.32;;;1.30;;
18445;SDS011;9352;50.888;4.466;2022-07-05T15:07:22;2.72;;;1.55;;
18445;SDS011;9352;50.888;4.466;2022-07-05T15:09:49;5.63;;;1.42;;
18445;SDS011;9352;50.888;4.466;2022-07-05T15:12:17;4.72;;;1.40;;
18445;SDS011;9352;50.888;4.466;2022-07-05T15:14:44;2.97;;;1.75;;
18445;SDS011;9352;50.888;4.466;2022-07-05T15:17:11;2.80;;;1.75;;
18445;SDS011;9352;50.888;4.466;2022-07-05T15:19:38;2.83;;;1.50;;